createdAt,value
2023-05-05T00:00:26.966Z,16.30
2023-05-05T00:02:54.253Z,15.75
2023-05-05T00:05:21.838Z,16.77
2023-05-05T00:07:49.194Z,16.05
2023-05-05T00:10:16.750Z,16.25
2023-05-05T00:12:43.910Z,16.17
2023-05-05T00:15:11.081Z,15.77
2023-05-05T00:17:38.372Z,16.00
2023-05-05T00:20:06.580Z,16.15
2023-05-05T00:22:33.974Z,16.48
2023-05-05T00:25:01.159Z,15.73
2023-05-05T00:27:28.325Z,16.60
2023-05-05T00:29:55.633Z,15.57
2023-05-05T00:32:22.891Z,15.57
2023-05-05T00:34:50.044Z,16.10
2023-05-05T00:37:17.568Z,15.40
2023-05-05T00:39:45.454Z,16.55
2023-05-05T00:42:12.589Z,15.85
2023-05-05T00:44:42.841Z,16.40
2023-05-05T00:47:10.447Z,16.48
2023-05-05T00:49:38.221Z,15.88
2023-05-05T00:52:07.486Z,15.43
2023-05-05T00:54:36.229Z,14.95
2023-05-05T00:57:04.166Z,16.23
2023-05-05T00:59:33.408Z,15.95
2023-05-05T01:02:03.568Z,14.85
2023-05-05T01:04:30.726Z,14.68
2023-05-05T01:07:22.428Z,14.35
2023-05-05T01:10:18.237Z,14.73
2023-05-05T01:12:52.297Z,14.55
2023-05-05T01:15:44.385Z,13.68
2023-05-05T01:18:14.311Z,14.55
2023-05-05T01:20:55.645Z,14.75
2023-05-05T01:24:05.410Z,13.90
2023-05-05T01:26:55.927Z,14.07
2023-05-05T01:29:49.299Z,13.68
2023-05-05T01:32:24.565Z,13.75
2023-05-05T01:35:03.288Z,14.48
2023-05-05T01:37:55.900Z,14.15
2023-05-05T01:40:27.068Z,13.00
2023-05-05T01:42:56.558Z,13.77
2023-05-05T01:45:27.374Z,14.40
2023-05-05T01:47:56.595Z,13.75
2023-05-05T01:50:27.730Z,13.93
2023-05-05T01:52:56.758Z,14.10
2023-05-05T01:55:26.560Z,14.07
2023-05-05T01:57:56.349Z,14.13
2023-05-05T02:00:25.361Z,13.07
2023-05-05T02:02:55.105Z,14.02
2023-05-05T02:05:23.623Z,13.93
2023-05-05T02:07:58.313Z,13.93
2023-05-05T02:10:25.908Z,13.13
2023-05-05T02:12:54.142Z,13.15
2023-05-05T02:15:23.861Z,13.23
2023-05-05T02:17:54.874Z,13.80
2023-05-05T02:20:24.600Z,13.27
2023-05-05T02:22:51.677Z,13.23
2023-05-05T02:25:18.941Z,13.90
2023-05-05T02:27:46.952Z,14.07
2023-05-05T02:30:18.490Z,13.57
2023-05-05T02:32:53.677Z,14.75
2023-05-05T02:35:24.527Z,13.95
2023-05-05T02:37:56.426Z,13.70
2023-05-05T02:40:26.497Z,12.73
2023-05-05T02:42:56.546Z,13.38
2023-05-05T02:45:25.089Z,14.20
2023-05-05T02:47:52.273Z,13.07
2023-05-05T02:50:19.483Z,12.55
2023-05-05T02:52:47.221Z,14.05
2023-05-05T02:55:15.104Z,14.25
2023-05-05T02:58:06.841Z,13.57
2023-05-05T03:00:58.581Z,13.70
2023-05-05T03:03:33.802Z,13.85
2023-05-05T03:06:28.591Z,13.45
2023-05-05T03:09:16.097Z,13.05
2023-05-05T03:12:01.249Z,13.13
2023-05-05T03:14:32.811Z,13.00
2023-05-05T03:17:01.550Z,12.85
2023-05-05T03:19:29.703Z,13.48
2023-05-05T03:21:57.144Z,12.93
2023-05-05T03:24:24.416Z,13.00
2023-05-05T03:26:51.710Z,12.38
2023-05-05T03:29:18.961Z,12.05
2023-05-05T03:31:46.306Z,12.52
2023-05-05T03:34:13.831Z,11.93
2023-05-05T03:36:41.110Z,12.90
2023-05-05T03:39:08.514Z,12.52
2023-05-05T03:41:36.012Z,13.00
2023-05-05T03:44:03.485Z,13.18
2023-05-05T03:46:30.634Z,12.25
2023-05-05T03:48:57.750Z,12.70
2023-05-05T03:51:25.538Z,11.88
2023-05-05T03:53:52.645Z,11.90
2023-05-05T03:56:19.813Z,12.55
2023-05-05T03:58:46.934Z,12.48
2023-05-05T04:01:14.150Z,11.65
2023-05-05T04:03:41.482Z,11.93
2023-05-05T04:06:08.739Z,11.75
2023-05-05T04:08:36.354Z,11.00
2023-05-05T04:11:03.573Z,11.63
2023-05-05T04:13:30.691Z,10.88
2023-05-05T04:15:59.971Z,10.70
2023-05-05T04:18:27.188Z,10.30
2023-05-05T04:20:54.437Z,11.23
2023-05-05T04:23:21.605Z,10.43
2023-05-05T04:25:48.824Z,10.70
2023-05-05T04:28:16.101Z,10.82
2023-05-05T04:30:43.258Z,10.40
2023-05-05T04:33:10.340Z,11.30
2023-05-05T04:35:37.589Z,10.90
2023-05-05T04:38:04.903Z,10.43
2023-05-05T04:40:32.092Z,10.52
2023-05-05T04:42:59.759Z,10.43
2023-05-05T04:45:26.924Z,11.55
2023-05-05T04:47:54.262Z,10.40
2023-05-05T04:50:21.910Z,12.10
2023-05-05T04:52:50.254Z,12.07
2023-05-05T04:55:18.495Z,11.18
2023-05-05T04:57:45.587Z,11.75
2023-05-05T05:00:13.196Z,11.65
2023-05-05T05:02:40.469Z,10.57
2023-05-05T05:05:08.155Z,10.48
2023-05-05T05:07:35.278Z,11.77
2023-05-05T05:10:02.521Z,11.07
2023-05-05T05:12:29.915Z,12.00
2023-05-05T05:14:57.215Z,11.77
2023-05-05T05:17:25.145Z,11.40
2023-05-05T05:19:52.409Z,11.55
2023-05-05T05:22:19.604Z,11.52
2023-05-05T05:24:46.882Z,11.20
2023-05-05T05:27:14.112Z,12.55
2023-05-05T05:29:41.368Z,11.18
2023-05-05T05:32:08.717Z,9.85
2023-05-05T05:34:35.949Z,10.68
2023-05-05T05:37:03.090Z,8.93
2023-05-05T05:39:30.262Z,9.27
2023-05-05T05:41:57.540Z,10.40
2023-05-05T05:44:24.707Z,9.35
2023-05-05T05:46:51.762Z,9.82
2023-05-05T05:49:18.928Z,11.38
2023-05-05T05:51:46.028Z,13.30
2023-05-05T05:54:13.191Z,9.95
2023-05-05T05:56:40.368Z,11.43
2023-05-05T05:59:10.445Z,10.07
2023-05-05T06:01:38.149Z,8.95
2023-05-05T06:04:05.336Z,8.75
2023-05-05T06:06:32.533Z,10.05
2023-05-05T06:08:59.800Z,8.27
2023-05-05T06:11:27.091Z,8.07
2023-05-05T06:13:54.223Z,9.35
2023-05-05T06:16:21.362Z,8.00
2023-05-05T06:18:49.018Z,7.93
2023-05-05T06:21:16.406Z,7.30
2023-05-05T06:23:43.559Z,6.28
2023-05-05T06:26:10.978Z,6.00
2023-05-05T06:28:38.158Z,7.07
2023-05-05T06:31:05.283Z,6.85
2023-05-05T06:33:32.833Z,7.15
2023-05-05T06:35:59.943Z,7.15
2023-05-05T06:38:27.051Z,7.80
2023-05-05T06:40:54.175Z,7.60
2023-05-05T06:43:22.125Z,6.65
2023-05-05T06:45:49.340Z,7.25
2023-05-05T06:48:16.502Z,6.90
2023-05-05T06:50:43.681Z,6.57
2023-05-05T06:53:11.189Z,6.63
2023-05-05T06:55:38.330Z,6.75
2023-05-05T06:58:05.551Z,6.40
2023-05-05T07:00:32.761Z,6.70
2023-05-05T07:03:00.094Z,5.70
2023-05-05T07:05:27.251Z,6.20
2023-05-05T07:07:55.784Z,6.40
2023-05-05T07:10:24.249Z,6.05
2023-05-05T07:12:51.939Z,5.75
2023-05-05T07:15:27.686Z,6.10
2023-05-05T07:17:56.930Z,6.70
2023-05-05T07:20:24.688Z,7.55
2023-05-05T07:22:52.068Z,6.43
2023-05-05T07:25:19.255Z,6.35
2023-05-05T07:27:46.532Z,8.05
2023-05-05T07:30:16.521Z,7.88
2023-05-05T07:32:46.063Z,7.63
2023-05-05T07:35:13.640Z,7.32
2023-05-05T07:37:40.850Z,6.65
2023-05-05T07:40:09.047Z,6.60
2023-05-05T07:42:36.463Z,6.57
2023-05-05T07:45:04.855Z,6.43
2023-05-05T07:47:32.534Z,6.18
2023-05-05T07:50:01.023Z,5.60
2023-05-05T07:52:44.207Z,7.03
2023-05-05T07:55:15.490Z,6.30
2023-05-05T07:57:42.712Z,6.72
2023-05-05T08:00:11.027Z,6.00
2023-05-05T08:02:39.904Z,6.28
2023-05-05T08:05:08.306Z,6.32
2023-05-05T08:07:37.076Z,5.75
2023-05-05T08:10:04.482Z,5.53
2023-05-05T08:12:31.876Z,5.75
2023-05-05T08:14:59.134Z,5.80
2023-05-05T08:17:27.347Z,5.40
2023-05-05T08:19:54.959Z,5.47
2023-05-05T08:22:22.938Z,6.43
2023-05-05T08:24:50.120Z,5.88
2023-05-05T08:27:17.271Z,6.32
2023-05-05T08:29:44.560Z,6.00
2023-05-05T08:32:11.818Z,5.75
2023-05-05T08:34:39.225Z,5.78
2023-05-05T08:37:06.526Z,6.28
2023-05-05T08:39:33.840Z,7.60
2023-05-05T08:42:00.929Z,6.78
2023-05-05T08:44:29.063Z,6.32
2023-05-05T08:46:56.860Z,7.63
2023-05-05T08:49:25.179Z,6.30
2023-05-05T08:51:54.355Z,6.90
2023-05-05T08:54:27.428Z,7.40
2023-05-05T08:56:57.613Z,7.82
2023-05-05T08:59:25.417Z,7.93
2023-05-05T09:01:54.368Z,8.65
2023-05-05T09:04:21.880Z,8.02
2023-05-05T09:06:49.036Z,7.85
2023-05-05T09:09:17.259Z,8.20
2023-05-05T09:11:46.303Z,7.32
2023-05-05T09:14:13.412Z,7.80
2023-05-05T09:16:44.417Z,7.65
2023-05-05T09:19:11.672Z,7.50
2023-05-05T09:21:48.944Z,6.90
2023-05-05T09:24:16.358Z,6.53
2023-05-05T09:26:45.530Z,6.97
2023-05-05T09:29:23.454Z,7.40
2023-05-05T09:32:11.045Z,7.20
2023-05-05T09:34:38.737Z,8.05
2023-05-05T09:37:06.530Z,7.90
2023-05-05T09:39:33.808Z,6.85
2023-05-05T09:42:01.591Z,5.47
2023-05-05T09:44:40.945Z,4.97
2023-05-05T09:47:18.483Z,5.10
2023-05-05T09:49:59.716Z,4.78
2023-05-05T09:52:26.954Z,4.38
2023-05-05T09:54:58.236Z,4.15
2023-05-05T09:57:34.148Z,4.20
2023-05-05T10:00:02.659Z,4.60
2023-05-05T10:02:35.226Z,4.75
2023-05-05T10:05:07.838Z,4.47
2023-05-05T10:07:36.005Z,4.30
2023-05-05T10:10:08.752Z,4.47
2023-05-05T10:12:37.322Z,4.00
2023-05-05T10:15:05.760Z,3.78
2023-05-05T10:17:36.768Z,3.70
2023-05-05T10:20:05.043Z,3.42
2023-05-05T10:22:34.882Z,3.45
2023-05-05T10:25:11.554Z,3.65
2023-05-05T10:27:45.013Z,2.83
2023-05-05T10:30:33.052Z,2.75
2023-05-05T10:33:30.990Z,2.90
2023-05-05T10:36:01.826Z,3.10
2023-05-05T10:38:33.970Z,3.17
2023-05-05T10:41:05.382Z,3.15
2023-05-05T10:43:32.885Z,3.10
2023-05-05T10:46:00.901Z,2.92
2023-05-05T10:48:40.758Z,3.00
2023-05-05T10:51:43.615Z,3.08
2023-05-05T10:54:23.389Z,3.08
2023-05-05T10:56:51.468Z,3.10
2023-05-05T10:59:39.410Z,2.80
2023-05-05T11:02:29.618Z,3.10
2023-05-05T11:05:22.849Z,2.70
2023-05-05T11:07:51.804Z,2.65
2023-05-05T11:10:20.867Z,2.70
2023-05-05T11:13:05.872Z,2.78
2023-05-05T11:15:38.143Z,2.72
2023-05-05T11:20:41.183Z,2.80
2023-05-05T11:23:08.326Z,2.70
2023-05-05T11:25:35.889Z,2.90
2023-05-05T11:28:17.845Z,2.72
2023-05-05T11:30:58.146Z,3.20
2023-05-05T11:33:36.184Z,3.15
2023-05-05T11:36:17.172Z,3.05
2023-05-05T11:39:10.110Z,3.10
2023-05-05T11:42:32.352Z,3.28
2023-05-05T11:44:59.925Z,3.40
2023-05-05T11:47:28.572Z,3.40
2023-05-05T11:49:56.299Z,3.38
2023-05-05T11:52:25.779Z,3.30
2023-05-05T11:54:52.954Z,3.42
2023-05-05T11:57:28.264Z,3.40
2023-05-05T11:59:58.131Z,3.40
2023-05-05T12:02:27.964Z,3.60
2023-05-05T12:04:56.350Z,3.92
2023-05-05T12:07:28.432Z,3.90
2023-05-05T12:09:56.217Z,3.75
2023-05-05T12:12:35.821Z,3.80
2023-05-05T12:15:04.063Z,4.07
2023-05-05T12:17:42.923Z,3.45
2023-05-05T12:20:12.323Z,3.38
2023-05-05T12:22:40.112Z,4.18
2023-05-05T12:25:08.913Z,5.28
2023-05-05T12:27:36.244Z,4.60
2023-05-05T12:30:18.077Z,4.28
2023-05-05T12:32:46.085Z,3.72
2023-05-05T12:35:14.176Z,4.13
2023-05-05T12:37:42.519Z,3.70
2023-05-05T12:41:01.926Z,4.22
2023-05-05T12:43:34.544Z,4.45
2023-05-05T12:46:07.546Z,4.30
2023-05-05T12:48:36.033Z,4.05
2023-05-05T12:51:20.766Z,4.50
2023-05-05T12:53:49.972Z,4.00
2023-05-05T12:56:52.427Z,3.83
2023-05-05T12:59:22.165Z,4.07
2023-05-05T13:01:56.734Z,4.22
2023-05-05T13:04:28.110Z,4.68
2023-05-05T13:07:15.357Z,5.22
2023-05-05T13:09:43.323Z,4.35
2023-05-05T13:12:13.389Z,4.20
2023-05-05T13:14:41.169Z,3.65
2023-05-05T13:17:08.853Z,4.35
2023-05-05T13:19:41.914Z,4.40
2023-05-05T13:22:13.260Z,4.18
2023-05-05T13:24:50.618Z,4.00
2023-05-05T13:27:19.359Z,3.90
2023-05-05T13:29:46.874Z,4.07
2023-05-05T13:32:14.476Z,4.10
2023-05-05T13:34:42.756Z,3.80
2023-05-05T13:37:09.919Z,3.90
2023-05-05T13:39:37.129Z,3.85
2023-05-05T13:42:04.509Z,3.90
2023-05-05T13:44:31.603Z,4.10
2023-05-05T13:46:58.846Z,3.53
2023-05-05T13:49:26.092Z,3.88
2023-05-05T13:51:53.192Z,4.55
2023-05-05T13:54:20.336Z,4.07
2023-05-05T13:56:47.555Z,4.03
2023-05-05T13:59:14.748Z,3.67
2023-05-05T14:01:41.963Z,4.00
2023-05-05T14:04:09.275Z,3.60
2023-05-05T14:06:36.600Z,3.88
2023-05-05T14:09:06.099Z,3.83
2023-05-05T14:11:33.629Z,3.67
2023-05-05T14:14:00.899Z,3.40
2023-05-05T14:16:28.061Z,4.32
2023-05-05T14:18:55.172Z,4.00
2023-05-05T14:21:24.142Z,4.20
2023-05-05T14:23:51.387Z,3.25
2023-05-05T14:26:18.674Z,3.65
2023-05-05T14:28:49.007Z,3.78
2023-05-05T14:31:17.833Z,3.95
2023-05-05T14:33:45.100Z,3.40
2023-05-05T14:36:12.292Z,3.83
2023-05-05T14:38:39.637Z,3.63
2023-05-05T14:41:06.866Z,3.70
2023-05-05T14:43:34.135Z,3.15
2023-05-05T14:46:06.863Z,3.50
2023-05-05T14:48:34.739Z,3.60
2023-05-05T14:51:02.062Z,3.70
2023-05-05T14:53:29.242Z,3.83
2023-05-05T14:55:56.538Z,4.03
2023-05-05T14:58:24.876Z,4.00
2023-05-05T15:00:53.133Z,3.85
2023-05-05T15:03:21.019Z,3.40
2023-05-05T15:05:48.327Z,3.85
2023-05-05T15:08:18.923Z,3.05
2023-05-05T15:10:46.812Z,3.70
2023-05-05T15:13:16.938Z,3.15
2023-05-05T15:15:45.328Z,3.15
2023-05-05T15:18:12.534Z,3.15
2023-05-05T15:20:39.768Z,3.50
2023-05-05T15:23:07.380Z,3.30
2023-05-05T15:25:35.165Z,3.83
2023-05-05T15:28:02.405Z,3.85
2023-05-05T15:30:30.544Z,3.80
2023-05-05T15:32:57.822Z,3.83
2023-05-05T15:35:25.938Z,3.92
2023-05-05T15:37:54.411Z,4.65
2023-05-05T15:40:21.812Z,3.92
2023-05-05T15:42:49.963Z,4.22
2023-05-05T15:45:18.006Z,4.03
2023-05-05T15:47:46.142Z,4.03
2023-05-05T15:50:13.557Z,4.15
2023-05-05T15:52:40.893Z,3.85
2023-05-05T15:55:09.516Z,4.57
2023-05-05T15:57:39.773Z,4.57
2023-05-05T16:00:08.934Z,4.45
2023-05-05T16:02:36.487Z,4.22
2023-05-05T16:05:04.917Z,4.22
2023-05-05T16:07:32.186Z,4.32
2023-05-05T16:09:59.348Z,4.47
2023-05-05T16:12:26.490Z,4.38
2023-05-05T16:14:53.646Z,4.22
2023-05-05T16:17:22.376Z,4.85
2023-05-05T16:19:50.062Z,4.47
2023-05-05T16:22:17.280Z,4.45
2023-05-05T16:24:44.513Z,4.60
2023-05-05T16:27:11.828Z,4.57
2023-05-05T16:29:39.132Z,4.60
2023-05-05T16:32:06.373Z,4.22
2023-05-05T16:34:33.486Z,4.22
2023-05-05T16:37:01.034Z,4.47
2023-05-05T16:39:28.414Z,5.13
2023-05-05T16:41:55.895Z,5.30
2023-05-05T16:44:23.378Z,5.10
2023-05-05T16:46:50.646Z,4.72
2023-05-05T16:49:18.547Z,5.25
2023-05-05T16:51:45.683Z,5.45
2023-05-05T16:54:12.877Z,4.60
2023-05-05T16:56:39.914Z,4.68
2023-05-05T16:59:07.246Z,5.13
2023-05-05T17:01:35.097Z,3.88
2023-05-05T17:04:02.675Z,4.20
2023-05-05T17:06:33.120Z,4.45
2023-05-05T17:09:00.486Z,4.32
2023-05-05T17:11:27.656Z,4.35
2023-05-05T17:13:54.868Z,4.60
2023-05-05T17:16:22.146Z,4.70
2023-05-05T17:18:49.433Z,4.75
2023-05-05T17:21:16.613Z,4.75
2023-05-05T17:23:44.542Z,5.15
2023-05-05T17:26:11.821Z,5.00
2023-05-05T17:28:38.948Z,4.90
2023-05-05T17:31:06.317Z,4.65
2023-05-05T17:33:35.931Z,4.60
2023-05-05T17:36:05.668Z,4.50
2023-05-05T17:38:36.528Z,5.13
2023-05-05T17:41:06.342Z,5.72
2023-05-05T17:43:34.337Z,4.88
2023-05-05T17:46:01.726Z,5.18
2023-05-05T17:48:31.630Z,5.18
2023-05-05T17:51:01.168Z,5.40
2023-05-05T17:53:31.207Z,5.68
2023-05-05T17:55:58.789Z,5.38
2023-05-05T17:58:28.862Z,6.68
2023-05-05T18:00:58.648Z,7.35
2023-05-05T18:03:28.384Z,6.00
2023-05-05T18:05:58.370Z,6.05
2023-05-05T18:08:28.605Z,6.18
2023-05-05T18:10:58.744Z,6.43
2023-05-05T18:13:29.317Z,6.25
2023-05-05T18:15:59.903Z,7.13
2023-05-05T18:18:30.010Z,6.90
2023-05-05T18:21:00.415Z,9.00
2023-05-05T18:23:29.888Z,12.80
2023-05-05T18:25:58.809Z,14.80
2023-05-05T18:28:29.080Z,14.82
2023-05-05T18:30:59.273Z,14.73
2023-05-05T18:33:30.064Z,14.40
2023-05-05T18:35:59.885Z,13.45
2023-05-05T18:38:27.174Z,12.52
2023-05-05T18:40:54.454Z,11.15
2023-05-05T18:43:21.575Z,11.30
2023-05-05T18:45:48.733Z,10.52
2023-05-05T18:48:16.575Z,10.77
2023-05-05T18:50:43.664Z,11.38
2023-05-05T18:53:13.703Z,10.88
2023-05-05T18:55:42.950Z,9.63
2023-05-05T18:58:10.296Z,8.57
2023-05-05T19:00:37.571Z,10.43
2023-05-05T19:03:04.740Z,9.57
2023-05-05T19:05:31.971Z,11.00
2023-05-05T19:07:59.072Z,9.70
2023-05-05T19:10:26.440Z,10.20
2023-05-05T19:12:55.699Z,10.70
2023-05-05T19:15:23.088Z,8.82
2023-05-05T19:17:50.408Z,9.63
2023-05-05T19:20:17.580Z,9.50
2023-05-05T19:22:44.758Z,10.60
2023-05-05T19:25:14.502Z,10.73
2023-05-05T19:27:42.021Z,10.93
2023-05-05T19:30:09.951Z,12.20
2023-05-05T19:32:37.138Z,10.63
2023-05-05T19:35:07.027Z,10.27
2023-05-05T19:37:34.324Z,10.77
2023-05-05T19:40:02.867Z,12.63
2023-05-05T19:42:30.094Z,11.60
2023-05-05T19:44:57.403Z,11.50
2023-05-05T19:47:24.699Z,10.55
2023-05-05T19:49:51.839Z,11.23
2023-05-05T19:52:19.068Z,11.02
2023-05-05T19:54:46.240Z,11.65
2023-05-05T19:57:13.438Z,12.38
2023-05-05T19:59:42.029Z,10.73
2023-05-05T20:02:10.345Z,10.73
2023-05-05T20:04:37.518Z,11.43
2023-05-05T20:07:04.834Z,10.80
2023-05-05T20:09:36.310Z,11.02
2023-05-05T20:12:10.368Z,10.80
2023-05-05T20:14:44.657Z,10.98
2023-05-05T20:17:18.225Z,11.15
2023-05-05T20:19:51.341Z,11.80
2023-05-05T20:22:19.202Z,12.30
2023-05-05T20:24:47.593Z,10.48
2023-05-05T20:27:16.348Z,10.32
2023-05-05T20:29:43.750Z,10.93
2023-05-05T20:32:16.244Z,11.32
2023-05-05T20:37:35.011Z,11.00
2023-05-05T20:40:05.366Z,11.63
2023-05-05T20:42:32.720Z,11.30
2023-05-05T20:45:01.532Z,12.55
2023-05-05T20:47:28.849Z,12.02
2023-05-05T20:49:56.329Z,12.48
2023-05-05T20:52:28.237Z,13.00
2023-05-05T20:54:59.251Z,12.32
2023-05-05T20:57:28.066Z,13.10
2023-05-05T20:59:55.534Z,12.50
2023-05-05T21:02:23.082Z,20.27
2023-05-05T21:04:51.200Z,15.27
2023-05-05T21:07:28.893Z,13.40
2023-05-05T21:09:56.194Z,13.27
2023-05-05T21:12:23.367Z,12.77
2023-05-05T21:14:51.089Z,12.77
2023-05-05T21:17:19.092Z,13.18
2023-05-05T21:19:46.454Z,11.93
2023-05-05T21:22:14.397Z,12.10
2023-05-05T21:24:41.563Z,12.10
2023-05-05T21:27:08.714Z,12.73
2023-05-05T21:29:37.969Z,12.57
2023-05-05T21:32:07.631Z,13.00
2023-05-05T21:34:35.346Z,12.95
2023-05-05T21:37:03.379Z,12.75
2023-05-05T21:39:33.112Z,12.63
2023-05-05T21:42:01.516Z,13.25
2023-05-05T21:44:29.204Z,13.90
2023-05-05T21:46:56.585Z,14.52
2023-05-05T21:49:24.153Z,13.90
2023-05-05T21:51:52.024Z,13.45
2023-05-05T21:54:19.209Z,14.90
2023-05-05T21:56:46.271Z,14.13
2023-05-05T21:59:15.230Z,13.82
2023-05-05T22:01:43.213Z,14.07
2023-05-05T22:04:10.483Z,15.32
2023-05-05T22:06:37.682Z,13.65
2023-05-05T22:09:04.789Z,13.50
2023-05-05T22:11:31.937Z,14.25
2023-05-05T22:13:59.048Z,14.27
2023-05-05T22:16:26.199Z,15.00
2023-05-05T22:18:53.475Z,15.38
2023-05-05T22:21:22.184Z,14.23
2023-05-05T22:23:49.368Z,13.63
2023-05-05T22:26:16.454Z,13.43
2023-05-05T22:28:43.655Z,13.45
2023-05-05T22:31:11.117Z,13.93
2023-05-05T22:33:38.295Z,14.18
2023-05-05T22:36:05.747Z,13.70
2023-05-05T22:38:32.864Z,14.50
2023-05-05T22:40:59.968Z,14.02
2023-05-05T22:43:27.124Z,14.25
2023-05-05T22:45:54.295Z,14.30
2023-05-05T22:48:21.816Z,14.60
2023-05-05T22:50:48.909Z,13.18
2023-05-05T22:53:16.136Z,15.15
2023-05-05T22:55:43.402Z,14.65
2023-05-05T22:58:10.567Z,14.68
2023-05-05T23:00:37.823Z,15.88
2023-05-05T23:03:05.140Z,14.57
2023-05-05T23:05:32.331Z,16.17
2023-05-05T23:08:01.590Z,16.35
2023-05-05T23:10:30.194Z,16.05
2023-05-05T23:12:57.350Z,16.02
2023-05-05T23:15:25.101Z,17.75
2023-05-05T23:17:52.412Z,16.88
2023-05-05T23:20:19.720Z,16.00
2023-05-05T23:22:46.907Z,16.63
2023-05-05T23:25:14.117Z,16.38
2023-05-05T23:27:41.462Z,17.15
2023-05-05T23:30:09.776Z,15.65
2023-05-05T23:32:37.080Z,15.02
2023-05-05T23:35:04.515Z,16.70
2023-05-05T23:37:31.750Z,16.02
2023-05-05T23:39:58.879Z,15.55
2023-05-05T23:42:25.978Z,17.20
2023-05-05T23:44:53.237Z,16.55
2023-05-05T23:47:20.414Z,17.67
2023-05-05T23:49:47.546Z,16.90
2023-05-05T23:52:14.770Z,17.05
2023-05-05T23:54:42.222Z,16.15
2023-05-05T23:57:09.613Z,17.00
2023-05-05T23:59:36.753Z,15.85
